createdAt,value
2018-07-12T00:00:42.020Z,7.77
2018-07-12T00:03:09.603Z,7.77
2018-07-12T00:05:37.156Z,8.17
2018-07-12T00:08:04.736Z,7.87
2018-07-12T00:10:32.308Z,7.13
2018-07-12T00:12:59.891Z,9.00
2018-07-12T00:15:27.506Z,7.60
2018-07-12T00:17:55.096Z,8.50
2018-07-12T00:20:22.670Z,8.93
2018-07-12T00:22:50.243Z,8.67
2018-07-12T00:25:17.880Z,9.30
2018-07-12T00:27:45.448Z,8.43
2018-07-12T00:30:13.033Z,9.40
2018-07-12T00:32:40.704Z,9.60
2018-07-12T00:35:08.305Z,9.03
2018-07-12T00:37:36.193Z,9.60
2018-07-12T00:40:03.853Z,10.00
2018-07-12T00:42:31.425Z,9.40
2018-07-12T00:44:59.043Z,9.97
2018-07-12T00:47:26.920Z,9.40
2018-07-12T00:49:54.496Z,9.80
2018-07-12T00:52:22.712Z,9.23
2018-07-12T00:54:50.300Z,9.67
2018-07-12T00:57:17.864Z,9.47
2018-07-12T00:59:45.441Z,9.27
2018-07-12T01:02:13.068Z,8.70
2018-07-12T01:04:41.209Z,8.27
2018-07-12T01:07:08.780Z,8.57
2018-07-12T01:09:36.413Z,8.20
2018-07-12T01:12:03.974Z,8.13
2018-07-12T01:14:31.529Z,8.80
2018-07-12T01:16:59.212Z,8.40
2018-07-12T01:19:27.196Z,9.00
2018-07-12T01:21:55.189Z,9.13
2018-07-12T01:24:22.964Z,9.60
2018-07-12T01:26:50.544Z,11.03
2018-07-12T01:29:18.111Z,11.57
2018-07-12T01:31:45.708Z,11.10
2018-07-12T01:34:14.020Z,12.33
2018-07-12T01:36:41.848Z,12.37
2018-07-12T01:39:09.421Z,12.93
2018-07-12T01:41:37.017Z,12.67
2018-07-12T01:44:04.593Z,12.20
2018-07-12T01:46:32.192Z,12.40
2018-07-12T01:48:59.980Z,12.90
2018-07-12T01:51:27.692Z,12.80
2018-07-12T01:53:55.581Z,12.67
2018-07-12T01:56:23.156Z,14.80
2018-07-12T01:58:50.746Z,13.43
2018-07-12T02:01:18.329Z,13.30
2018-07-12T02:03:46.009Z,14.37
2018-07-12T02:06:13.585Z,14.40
2018-07-12T02:08:41.715Z,14.60
2018-07-12T02:11:09.298Z,12.80
2018-07-12T02:13:36.884Z,14.90
2018-07-12T02:16:04.456Z,14.77
2018-07-12T02:18:32.044Z,14.10
2018-07-12T02:20:59.617Z,15.00
2018-07-12T02:23:27.320Z,13.30
2018-07-12T02:25:54.896Z,15.20
2018-07-12T02:28:22.609Z,13.27
2018-07-12T02:30:50.177Z,13.40
2018-07-12T02:33:17.781Z,14.00
2018-07-12T02:35:45.638Z,14.00
2018-07-12T02:38:13.579Z,13.47
2018-07-12T02:40:41.166Z,13.50
2018-07-12T02:43:08.732Z,13.50
2018-07-12T02:45:36.317Z,13.30
2018-07-12T02:48:03.885Z,14.87
2018-07-12T02:50:31.489Z,13.30
2018-07-12T02:52:59.076Z,14.17
2018-07-12T02:55:26.664Z,13.60
2018-07-12T02:57:54.241Z,14.20
2018-07-12T03:00:21.832Z,14.47
2018-07-12T03:02:49.400Z,13.30
2018-07-12T03:05:17.010Z,14.10
2018-07-12T03:07:44.580Z,15.53
2018-07-12T03:10:12.180Z,15.63
2018-07-12T03:12:39.747Z,16.10
2018-07-12T03:15:07.345Z,15.03
2018-07-12T03:17:34.921Z,15.60
2018-07-12T03:20:02.492Z,16.83
2018-07-12T03:22:30.092Z,17.10
2018-07-12T03:24:57.856Z,16.83
2018-07-12T03:27:25.444Z,16.60
2018-07-12T03:29:53.032Z,18.63
2018-07-12T03:32:20.620Z,18.20
2018-07-12T03:34:48.189Z,17.13
2018-07-12T03:37:16.323Z,18.40
2018-07-12T03:39:44.038Z,18.07
2018-07-12T03:42:12.412Z,16.63
2018-07-12T03:44:40.000Z,16.13
2018-07-12T03:47:07.593Z,19.03
2018-07-12T03:49:35.172Z,17.87
2018-07-12T03:52:02.845Z,17.80
2018-07-12T03:54:30.412Z,17.57
2018-07-12T03:56:58.288Z,17.07
2018-07-12T03:59:26.021Z,17.73
2018-07-12T04:01:53.613Z,18.30
2018-07-12T04:04:21.184Z,18.13
2018-07-12T04:06:49.028Z,18.17
2018-07-12T04:09:16.596Z,16.67
2018-07-12T04:11:44.160Z,17.13
2018-07-12T04:14:11.746Z,17.53
2018-07-12T04:16:39.325Z,16.10
2018-07-12T04:19:07.444Z,15.57
2018-07-12T04:21:35.057Z,14.07
2018-07-12T04:24:02.650Z,11.93
2018-07-12T04:26:30.217Z,10.90
2018-07-12T04:28:58.378Z,11.00
2018-07-12T04:31:25.953Z,9.53
2018-07-12T04:33:53.692Z,9.27
2018-07-12T04:36:21.380Z,9.00
2018-07-12T04:38:49.017Z,9.63
2018-07-12T04:41:16.577Z,9.37
2018-07-12T04:43:44.679Z,9.97
2018-07-12T04:46:12.566Z,9.67
2018-07-12T04:48:40.562Z,9.30
2018-07-12T04:51:08.803Z,9.40
2018-07-12T04:53:36.600Z,10.60
2018-07-12T04:56:04.176Z,10.00
2018-07-12T04:58:31.830Z,11.07
2018-07-12T05:00:59.382Z,10.60
2018-07-12T05:03:26.957Z,12.43
2018-07-12T05:05:54.732Z,10.83
2018-07-12T05:08:22.304Z,12.33
2018-07-12T05:10:50.013Z,12.30
2018-07-12T05:13:17.577Z,12.43
2018-07-12T05:15:45.172Z,11.67
2018-07-12T05:18:12.748Z,11.40
2018-07-12T05:20:41.032Z,12.13
2018-07-12T05:23:08.606Z,11.93
2018-07-12T05:25:36.195Z,10.80
2018-07-12T05:28:03.768Z,11.70
2018-07-12T05:30:31.356Z,10.60
2018-07-12T05:32:58.922Z,10.87
2018-07-12T05:35:28.008Z,12.03
2018-07-12T05:37:56.122Z,12.20
2018-07-12T05:40:24.264Z,12.43
2018-07-12T05:42:52.368Z,10.63
2018-07-12T05:45:21.065Z,10.57
2018-07-12T05:47:49.240Z,10.70
2018-07-12T05:50:17.793Z,11.57
2018-07-12T05:52:46.072Z,11.63
2018-07-12T05:55:14.204Z,11.53
2018-07-12T05:57:42.292Z,11.20
2018-07-12T06:00:10.397Z,9.67
2018-07-12T06:02:38.488Z,10.87
2018-07-12T06:05:06.633Z,10.50
2018-07-12T06:07:35.571Z,10.97
2018-07-12T06:10:03.705Z,10.93
2018-07-12T06:12:31.819Z,10.80
2018-07-12T06:14:59.968Z,11.03
2018-07-12T06:17:28.456Z,10.57
2018-07-12T06:19:56.857Z,10.97
2018-07-12T06:22:24.984Z,9.10
2018-07-12T06:24:53.089Z,9.97
2018-07-12T06:27:22.173Z,9.20
2018-07-12T06:29:50.327Z,10.00
2018-07-12T06:32:18.480Z,9.23
2018-07-12T06:34:46.584Z,8.90
2018-07-12T06:37:15.099Z,9.13
2018-07-12T06:39:43.436Z,9.30
2018-07-12T06:42:11.572Z,8.80
2018-07-12T06:44:39.664Z,8.90
2018-07-12T06:47:08.007Z,8.23
2018-07-12T06:49:36.779Z,8.60
2018-07-12T06:52:05.141Z,8.20
2018-07-12T06:54:33.240Z,8.43
2018-07-12T06:57:01.388Z,8.17
2018-07-12T06:59:29.484Z,8.27
2018-07-12T07:01:57.988Z,8.40
2018-07-12T07:04:26.182Z,7.70
2018-07-12T07:06:54.776Z,6.93
2018-07-12T07:09:23.292Z,4.50
2018-07-12T07:11:51.869Z,4.93
2018-07-12T07:14:20.051Z,6.33
2018-07-12T07:16:48.132Z,5.70
2018-07-12T07:19:16.455Z,4.80
2018-07-12T07:21:44.567Z,4.90
2018-07-12T07:24:12.698Z,4.50
2018-07-12T07:26:40.794Z,3.97
2018-07-12T07:29:08.904Z,4.03
2018-07-12T07:31:37.028Z,4.20
2018-07-12T07:34:05.369Z,4.73
2018-07-12T07:36:33.475Z,5.10
2018-07-12T07:39:01.596Z,4.63
2018-07-12T07:41:29.688Z,4.70
2018-07-12T07:43:58.103Z,4.70
2018-07-12T07:46:26.668Z,4.20
2018-07-12T07:48:54.788Z,4.97
2018-07-12T07:51:22.980Z,5.33
2018-07-12T07:53:51.308Z,5.90
2018-07-12T07:56:19.512Z,5.03
2018-07-12T07:58:47.603Z,5.33
2018-07-12T08:01:15.780Z,5.50
2018-07-12T08:03:43.961Z,5.00
2018-07-12T08:06:12.207Z,5.43
2018-07-12T08:08:40.304Z,5.60
2018-07-12T08:11:08.419Z,4.70
2018-07-12T08:13:36.512Z,4.80
2018-07-12T08:16:04.640Z,4.93
2018-07-12T08:18:32.893Z,4.77
2018-07-12T08:21:01.085Z,5.00
2018-07-12T08:23:29.650Z,5.10
2018-07-12T08:25:57.772Z,4.30
2018-07-12T08:28:27.120Z,5.17
2018-07-12T08:30:55.914Z,3.80
2018-07-12T08:33:24.360Z,4.03
2018-07-12T08:35:52.444Z,3.73
2018-07-12T08:38:20.616Z,3.77
2018-07-12T08:40:48.756Z,3.70
2018-07-12T08:43:16.925Z,4.00
2018-07-12T08:45:45.645Z,4.10
2018-07-12T08:48:13.972Z,4.20
2018-07-12T08:50:42.312Z,4.37
2018-07-12T08:53:10.489Z,4.70
2018-07-12T08:55:38.564Z,4.43
2018-07-12T08:58:06.727Z,4.83
2018-07-12T09:00:34.916Z,5.27
2018-07-12T09:03:03.188Z,4.70
2018-07-12T09:05:31.297Z,4.83
2018-07-12T09:07:59.412Z,5.17
2018-07-12T09:10:27.525Z,5.03
2018-07-12T09:12:55.664Z,5.37
2018-07-12T09:15:23.764Z,4.03
2018-07-12T09:17:51.917Z,4.33
2018-07-12T09:20:20.020Z,4.60
2018-07-12T09:22:48.226Z,4.70
2018-07-12T09:25:16.417Z,4.33
2018-07-12T09:27:44.597Z,4.23
2018-07-12T09:30:12.688Z,5.03
2018-07-12T09:32:40.926Z,4.03
2018-07-12T09:35:09.146Z,4.77
2018-07-12T09:37:37.500Z,5.33
2018-07-12T09:40:05.661Z,4.20
2018-07-12T09:42:33.757Z,5.30
2018-07-12T09:45:01.884Z,4.47
2018-07-12T09:47:30.184Z,4.70
2018-07-12T09:49:58.275Z,4.57
2018-07-12T09:52:31.477Z,4.80
2018-07-12T09:54:59.672Z,5.10
2018-07-12T09:57:33.244Z,4.80
2018-07-12T10:00:01.449Z,4.77
2018-07-12T10:02:34.824Z,5.17
2018-07-12T10:05:02.969Z,5.17
2018-07-12T10:07:35.376Z,4.53
2018-07-12T10:10:03.728Z,4.20
2018-07-12T10:12:37.063Z,4.60
2018-07-12T10:15:09.884Z,4.60
2018-07-12T10:17:48.320Z,5.27
2018-07-12T10:20:16.436Z,5.10
2018-07-12T10:22:44.660Z,4.70
2018-07-12T10:25:12.824Z,5.10
2018-07-12T10:27:40.918Z,4.70
2018-07-12T10:30:09.012Z,4.80
2018-07-12T10:32:37.204Z,5.30
2018-07-12T10:35:05.390Z,5.73
2018-07-12T10:37:33.536Z,4.20
2018-07-12T10:40:01.645Z,4.37
2018-07-12T10:42:29.760Z,4.40
2018-07-12T10:44:57.849Z,4.30
2018-07-12T10:47:25.988Z,5.23
2018-07-12T10:49:54.084Z,4.20
2018-07-12T10:52:22.192Z,4.10
2018-07-12T10:54:50.296Z,4.70
2018-07-12T10:57:18.430Z,4.80
2018-07-12T10:59:46.532Z,4.07
2018-07-12T11:02:14.695Z,4.67
2018-07-12T11:04:42.792Z,4.73
2018-07-12T11:07:10.922Z,4.60
2018-07-12T11:09:39.865Z,4.43
2018-07-12T11:12:07.972Z,5.07
2018-07-12T11:14:36.057Z,4.87
2018-07-12T11:17:04.164Z,4.80
2018-07-12T11:19:32.248Z,5.07
2018-07-12T11:22:00.492Z,4.70
2018-07-12T11:24:28.601Z,4.97
2018-07-12T11:26:56.717Z,4.80
2018-07-12T11:29:30.172Z,5.40
2018-07-12T11:31:58.291Z,5.00
2018-07-12T11:34:26.392Z,5.97
2018-07-12T11:36:54.563Z,5.90
2018-07-12T11:39:22.775Z,5.30
2018-07-12T11:41:51.144Z,5.37
2018-07-12T11:44:19.247Z,5.23
2018-07-12T11:46:47.348Z,5.40
2018-07-12T11:49:15.456Z,5.67
2018-07-12T11:51:43.557Z,6.00
2018-07-12T11:54:11.665Z,5.43
2018-07-12T11:56:39.755Z,5.20
2018-07-12T11:59:07.893Z,5.03
2018-07-12T12:01:35.998Z,4.87
2018-07-12T12:04:04.116Z,5.17
2018-07-12T12:06:32.233Z,5.20
2018-07-12T12:09:00.578Z,6.17
2018-07-12T12:11:28.692Z,5.50
2018-07-12T12:13:56.810Z,5.90
2018-07-12T12:16:24.924Z,5.27
2018-07-12T12:18:53.040Z,6.30
2018-07-12T12:21:21.135Z,6.30
2018-07-12T12:23:49.248Z,6.53
2018-07-12T12:26:17.344Z,6.70
2018-07-12T12:28:45.437Z,5.50
2018-07-12T12:31:13.560Z,5.40
2018-07-12T12:33:41.740Z,5.23
2018-07-12T12:36:09.900Z,5.70
2018-07-12T12:38:38.054Z,5.17
2018-07-12T12:41:06.200Z,5.37
2018-07-12T12:43:34.292Z,5.20
2018-07-12T12:46:02.405Z,5.43
2018-07-12T12:48:30.498Z,6.03
2018-07-12T12:50:58.652Z,6.37
2018-07-12T12:53:26.752Z,6.17
2018-07-12T12:55:54.888Z,5.53
2018-07-12T12:58:22.992Z,5.30
2018-07-12T13:00:51.120Z,5.13
2018-07-12T13:03:19.216Z,4.63
2018-07-12T13:05:47.321Z,5.47
2018-07-12T13:08:15.433Z,4.97
2018-07-12T13:10:43.537Z,4.90
2018-07-12T13:13:11.709Z,5.63
2018-07-12T13:15:39.796Z,4.70
2018-07-12T13:18:07.915Z,4.43
2018-07-12T13:20:36.012Z,4.57
2018-07-12T13:23:04.161Z,4.53
2018-07-12T13:25:32.313Z,4.60
2018-07-12T13:28:00.450Z,4.60
2018-07-12T13:30:28.534Z,5.27
2018-07-12T13:32:56.692Z,5.57
2018-07-12T13:35:25.117Z,5.00
2018-07-12T13:37:53.261Z,4.17
2018-07-12T13:40:21.352Z,4.70
2018-07-12T13:42:49.514Z,4.60
2018-07-12T13:45:17.682Z,4.00
2018-07-12T13:47:45.804Z,4.53
2018-07-12T13:50:13.920Z,4.70
2018-07-12T13:52:42.029Z,3.93
2018-07-12T13:55:10.152Z,4.20
2018-07-12T13:57:38.264Z,3.80
2018-07-12T14:00:06.400Z,4.13
2018-07-12T14:02:34.532Z,3.93
2018-07-12T14:05:02.734Z,4.40
2018-07-12T14:07:30.788Z,4.83
2018-07-12T14:09:58.910Z,4.13
2018-07-12T14:12:27.029Z,3.97
2018-07-12T14:14:55.149Z,4.50
2018-07-12T14:17:23.236Z,3.87
2018-07-12T14:19:51.351Z,4.50
2018-07-12T14:22:19.444Z,4.40
2018-07-12T14:24:47.607Z,3.97
2018-07-12T14:27:15.729Z,4.77
2018-07-12T14:29:43.861Z,4.23
2018-07-12T14:32:11.969Z,4.30
2018-07-12T14:34:40.089Z,4.53
2018-07-12T14:37:08.204Z,4.40
2018-07-12T14:39:36.349Z,3.90
2018-07-12T14:42:04.502Z,4.90
2018-07-12T14:44:32.837Z,4.67
2018-07-12T14:47:01.006Z,4.60
2018-07-12T14:49:29.056Z,4.30
2018-07-12T14:51:57.192Z,5.80
2018-07-12T14:54:25.363Z,4.67
2018-07-12T14:56:53.440Z,4.80
2018-07-12T14:59:21.533Z,5.50
2018-07-12T15:01:49.656Z,5.60
2018-07-12T15:04:17.756Z,5.87
2018-07-12T15:06:45.877Z,4.97
2018-07-12T15:09:14.083Z,4.80
2018-07-12T15:11:42.103Z,5.83
2018-07-12T15:14:10.257Z,5.33
2018-07-12T15:16:38.398Z,5.40
2018-07-12T15:19:06.516Z,5.40
2018-07-12T15:21:34.637Z,5.17
2018-07-12T15:24:02.752Z,5.67
2018-07-12T15:26:30.884Z,5.53
2018-07-12T15:28:58.969Z,4.87
2018-07-12T15:31:27.140Z,4.60
2018-07-12T15:33:55.196Z,5.17
2018-07-12T15:36:23.349Z,4.70
2018-07-12T15:38:51.440Z,5.30
2018-07-12T15:41:19.536Z,5.03
2018-07-12T15:43:47.656Z,4.57
2018-07-12T15:46:15.780Z,5.40
2018-07-12T15:48:43.888Z,5.17
2018-07-12T15:51:11.989Z,4.90
2018-07-12T15:53:40.096Z,4.97
2018-07-12T15:56:08.185Z,4.70
2018-07-12T15:58:36.288Z,5.27
2018-07-12T16:01:04.372Z,5.30
2018-07-12T16:03:32.480Z,5.27
2018-07-12T16:06:00.705Z,5.67
2018-07-12T16:08:28.813Z,4.77
2018-07-12T16:10:56.923Z,5.40
2018-07-12T16:13:25.105Z,5.87
2018-07-12T16:15:53.156Z,4.97
2018-07-12T16:18:21.256Z,4.90
2018-07-12T16:20:49.364Z,4.70
2018-07-12T16:23:17.480Z,5.30
2018-07-12T16:25:45.568Z,5.23
2018-07-12T16:28:13.678Z,5.27
2018-07-12T16:30:41.784Z,5.47
2018-07-12T16:33:09.936Z,4.93
2018-07-12T16:35:38.076Z,5.13
2018-07-12T16:38:06.172Z,4.70
2018-07-12T16:40:34.306Z,5.13
2018-07-12T16:43:02.413Z,4.27
2018-07-12T16:45:30.529Z,4.63
2018-07-12T16:47:58.632Z,4.00
2018-07-12T16:50:26.757Z,4.63
2018-07-12T16:52:54.853Z,4.37
2018-07-12T16:55:22.964Z,4.40
2018-07-12T16:57:51.081Z,4.20
2018-07-12T17:00:19.573Z,4.10
2018-07-12T17:02:48.441Z,4.43
2018-07-12T17:05:27.845Z,4.77
2018-07-12T17:07:59.228Z,4.00
2018-07-12T17:10:27.524Z,3.90
2018-07-12T17:12:55.662Z,3.60
2018-07-12T17:15:24.750Z,3.53
2018-07-12T17:20:33.393Z,3.50
2018-07-12T17:23:01.476Z,3.93
2018-07-12T17:25:29.624Z,3.43
2018-07-12T17:27:57.748Z,3.97
2018-07-12T17:30:25.864Z,3.90
2018-07-12T17:32:53.965Z,3.73
2018-07-12T17:35:22.101Z,3.47
2018-07-12T17:37:50.229Z,4.03
2018-07-12T17:40:18.324Z,3.33
2018-07-12T17:42:46.445Z,3.80
2018-07-12T17:45:14.649Z,4.10
2018-07-12T17:47:42.948Z,3.80
2018-07-12T17:50:10.944Z,3.53
2018-07-12T17:52:39.131Z,3.93
2018-07-12T17:55:07.232Z,4.37
2018-07-12T17:57:35.356Z,4.30
2018-07-12T18:00:03.569Z,4.57
2018-07-12T18:02:31.711Z,4.90
2018-07-12T18:04:59.896Z,4.50
2018-07-12T18:07:27.985Z,3.40
2018-07-12T18:09:56.184Z,4.03
2018-07-12T18:12:24.304Z,3.20
2018-07-12T18:14:52.432Z,3.80
2018-07-12T18:17:20.571Z,5.20
2018-07-12T18:19:48.676Z,3.97
2018-07-12T18:22:16.821Z,3.60
2018-07-12T18:24:44.917Z,3.80
2018-07-12T18:27:13.024Z,4.70
2018-07-12T18:29:41.139Z,4.13
2018-07-12T18:32:09.480Z,3.83
2018-07-12T18:34:37.637Z,3.90
2018-07-12T18:37:05.741Z,3.53
2018-07-12T18:39:33.852Z,4.90
2018-07-12T18:42:02.013Z,6.27
2018-07-12T18:44:30.148Z,5.57
2018-07-12T18:46:58.291Z,4.63
2018-07-12T18:49:26.424Z,4.67
2018-07-12T18:51:54.524Z,4.53
2018-07-12T18:54:22.653Z,4.20
2018-07-12T18:56:50.760Z,3.57
2018-07-12T18:59:18.927Z,4.90
2018-07-12T19:01:47.053Z,3.87
2018-07-12T19:04:15.152Z,4.27
2018-07-12T19:06:43.300Z,4.10
2018-07-12T19:09:11.416Z,4.87
2018-07-12T19:11:39.577Z,4.50
2018-07-12T19:14:07.700Z,4.10
2018-07-12T19:16:35.830Z,4.43
2018-07-12T19:19:04.033Z,4.23
2018-07-12T19:21:32.161Z,4.53
2018-07-12T19:24:00.281Z,4.40
2018-07-12T19:26:28.492Z,4.97
2018-07-12T19:28:56.642Z,5.00
2018-07-12T19:31:24.864Z,4.17
2018-07-12T19:33:52.964Z,4.30
2018-07-12T19:36:21.124Z,4.33
2018-07-12T19:38:49.285Z,5.30
2018-07-12T19:41:17.451Z,4.53
2018-07-12T19:43:45.560Z,4.20
2018-07-12T19:46:13.709Z,4.67
2018-07-12T19:48:41.852Z,5.43
2018-07-12T19:51:09.989Z,3.90
2018-07-12T19:53:38.092Z,4.50
2018-07-12T19:56:06.301Z,5.40
2018-07-12T19:58:34.684Z,5.27
2018-07-12T20:01:02.822Z,5.23
2018-07-12T20:03:30.990Z,4.90
2018-07-12T20:05:59.117Z,5.10
2018-07-12T20:08:27.266Z,4.73
2018-07-12T20:10:55.434Z,4.40
2018-07-12T20:13:23.596Z,4.17
2018-07-12T20:15:51.793Z,5.00
2018-07-12T20:18:20.084Z,4.67
2018-07-12T20:20:48.332Z,4.43
2018-07-12T20:23:16.470Z,4.73
2018-07-12T20:25:44.657Z,5.10
2018-07-12T20:28:12.780Z,4.83
2018-07-12T20:30:41.148Z,4.87
2018-07-12T20:33:09.309Z,5.00
2018-07-12T20:35:37.420Z,4.90
2018-07-12T20:38:05.553Z,4.40
2018-07-12T20:40:33.676Z,4.97
2018-07-12T20:43:01.828Z,5.43
2018-07-12T20:45:30.033Z,5.00
2018-07-12T20:47:58.307Z,4.40
2018-07-12T20:50:26.417Z,4.87
2018-07-12T20:52:54.540Z,4.40
2018-07-12T20:55:22.663Z,4.87
2018-07-12T20:57:50.797Z,4.73
2018-07-12T21:00:18.924Z,4.93
2018-07-12T21:02:47.024Z,4.90
2018-07-12T21:05:15.151Z,4.60
2018-07-12T21:07:43.316Z,5.20
2018-07-12T21:10:11.436Z,5.07
2018-07-12T21:12:39.540Z,4.80
2018-07-12T21:15:07.684Z,4.20
2018-07-12T21:17:35.932Z,5.20
2018-07-12T21:20:04.701Z,4.33
2018-07-12T21:22:32.798Z,5.13
2018-07-12T21:25:00.916Z,4.70
2018-07-12T21:27:29.032Z,4.63
2018-07-12T21:29:57.181Z,4.33
2018-07-12T21:32:25.289Z,4.63
2018-07-12T21:34:53.416Z,5.00
2018-07-12T21:37:21.528Z,5.10
2018-07-12T21:39:49.720Z,4.90
2018-07-12T21:42:18.044Z,5.63
2018-07-12T21:44:46.160Z,5.37
2018-07-12T21:47:14.285Z,4.93
2018-07-12T21:49:42.390Z,5.50
2018-07-12T21:52:10.633Z,5.30
2018-07-12T21:54:38.783Z,5.10
2018-07-12T21:57:06.913Z,5.20
2018-07-12T21:59:35.020Z,5.00
2018-07-12T22:02:03.203Z,5.30
2018-07-12T22:04:31.313Z,4.77
2018-07-12T22:07:05.056Z,5.20
2018-07-12T22:09:33.181Z,4.97
2018-07-12T22:12:01.325Z,5.47
2018-07-12T22:14:29.667Z,5.10
2018-07-12T22:16:57.873Z,5.00
2018-07-12T22:19:25.976Z,5.20
2018-07-12T22:21:54.116Z,4.60
2018-07-12T22:24:22.209Z,4.67
2018-07-12T22:26:50.976Z,5.20
2018-07-12T22:29:19.081Z,5.53
2018-07-12T22:31:47.215Z,4.93
2018-07-12T22:34:15.313Z,5.50
2018-07-12T22:36:43.656Z,5.40
2018-07-12T22:39:11.888Z,5.13
2018-07-12T22:41:40.054Z,5.03
2018-07-12T22:44:08.127Z,5.90
2018-07-12T22:46:36.230Z,4.90
2018-07-12T22:49:04.555Z,5.80
2018-07-12T22:51:32.600Z,4.80
2018-07-12T22:54:00.708Z,5.60
2018-07-12T22:56:28.806Z,5.13
2018-07-12T22:58:56.944Z,5.50
2018-07-12T23:01:25.045Z,4.80
2018-07-12T23:03:53.156Z,5.33
2018-07-12T23:06:21.313Z,5.33
2018-07-12T23:08:49.432Z,4.73
2018-07-12T23:11:17.897Z,4.83
2018-07-12T23:13:46.012Z,5.17
2018-07-12T23:16:14.100Z,5.17
2018-07-12T23:18:42.231Z,5.70
2018-07-12T23:21:10.329Z,5.80
2018-07-12T23:23:38.548Z,5.70
2018-07-12T23:26:06.776Z,5.47
2018-07-12T23:28:34.928Z,5.80
2018-07-12T23:31:03.082Z,5.63
2018-07-12T23:33:31.180Z,5.63
2018-07-12T23:35:59.300Z,6.20
2018-07-12T23:38:27.392Z,6.00
2018-07-12T23:40:55.505Z,6.10
2018-07-12T23:43:23.683Z,5.10
2018-07-12T23:45:52.126Z,6.10
2018-07-12T23:48:20.258Z,5.97
2018-07-12T23:50:48.509Z,6.20
2018-07-12T23:53:16.607Z,6.63
2018-07-12T23:55:44.772Z,6.20
2018-07-12T23:58:12.879Z,5.87
